Lincoln, RI

8:25 PM EDT on May 28, 2015 (GMT -0400)
Taunton Municipal | | Change Station
CLOSE
Current Station
Airport
Location: Taunton,
Elevation: 43 ft
Nearby Weather Stations

Elev 43 ft 41.88 °N, 71.02 °W | Updated 33 minutes ago

Partly Cloudy
Partly Cloudy
70 °F
Feels Like 70 °F
N
6
Wind Variable Wind from Variable

Today
High -- | Low -- °F
--% Chance of Precip.
Yesterday
High -- | Low -- °F
Precip. -- in
5:15 AM 8:11 PM
Waxing Gibbous, 79% visible
Pressure 30.13 in
Visibility 10.0 miles
Clouds Clear
Dew Point 63 °F
Humidity 78%
Rainfall 0.00 in
Snow Depth Not available.
UV 0 out of 12
Pollen 9.90 out of 12
Air Quality Not available.
Flu Activity No Activity
METAR KTAN 282352Z AUTO VRB05KT 10SM CLR 21/17 A3013 RMK AO2 SLP202 T02110172 10272 20211 51012

More Conditions Fewer Conditions

Pressure 30.13 in
Visibility 10.0 miles
Clouds Clear
Dew Point 63 °F
Humidity 78%
Rainfall 0.00 in
Snow Depth Not available.
UV 0 out of 12
Pollen 9.90 out of 12
Air Quality Not available.
Flu Activity No Activity
METAR KTAN 282352Z AUTO VRB05KT 10SM CLR 21/17 A3013 RMK AO2 SLP202 T02110172 10272 20211 51012

More Conditions Fewer Conditions

10-Day Weather Forecast

Almanac

Astronomy

May. 28, 2015 Rise Set
Actual Time
Civil Twilight
Nautical Twilight
Astronomical Twilight
Moon
Length of Visible Light
Length of Day
Tomorrow will be .
, % of the Moon is Illuminated

Today's Extremes

State Highs State Lows

Community

WunderPhotos

Upload Photos

1,825,098 photos uploaded!

WunderBlogs® & News

Nearby

Air Quality

  Air Quality AQ Index Pollutant
Not available.

Snow Depth

Station Depth Elevation

Earthquake Activity

City Distance Mag. Time & Date
Minimum magnitude displayed is 2.5.

Coastal Water Temperatures

Place Temperature

Stations

Nearby Weather Stations

Station Location Temp. Windchill Dew Point Humidity Wind Precip. Elev Updated Type